< < Back
Terminal Aerodrome Forecast


Current Version              Previous Versions:   1  2  3  4  5  6  7  8  9  

Terminal Aerodrome Forecast

167
FTUS42 KFFC 241500 AAB
TAFATL
TAF AMD
KATL 241552Z 2416/2518 06005KT P6SM FEW150 SCT250
     FM242000 30003KT P6SM SCT150
     FM250000 33005KT P6SM SKC=



Latest METAR

840
SAUS70 KWBC 242300 RRB
MTRATL
METAR KATL 242252Z 32006KT 10SM CLR 19/06 A3000 RMK AO2 SLP158
T01940056


USA.gov is the U.S. government's official web portal to all federal, state and local government web resources and services.